JJA137 RKSS-RKPC
Flight info
| Callsign | JJA137 |
|---|---|
| Flight time | 0h 47m |
| Altitude | 22000 |
| Route | BULTI2T BULTI Y711 DOTOL DOTOL2M |
| Aircraft | B738/M-SDE2E3FGHIRWXY/LB1 |
Departure
| Time | 2026-05-07 10:26 |
|---|---|
| Airport | Gimpo International Airport (RKSS) |
Arrival
| Time | 2026-05-07 11:14 |
|---|---|
| Airport | Jeju International Airport (RKPC) |
| Time | Latitude | Longitude | Altitude | Speed | Heading |
|---|---|---|---|---|---|
| 2026-05-07 09:56 | 37.55806 | 126.79861 | 70 ft | 0 kts | 225° |
| 2026-05-07 10:21 | 37.55789 | 126.79839 | 70 ft | 8 kts | 225° |
| 2026-05-07 10:21 | 37.55735 | 126.79806 | 68 ft | 9 kts | 155° |
| 2026-05-07 10:21 | 37.55682 | 126.79866 | 67 ft | 12 kts | 135° |
| 2026-05-07 10:21 | 37.55609 | 126.79957 | 66 ft | 17 kts | 135° |
| 2026-05-07 10:22 | 37.55518 | 126.80070 | 63 ft | 19 kts | 134° |
| 2026-05-07 10:22 | 37.55420 | 126.80195 | 60 ft | 20 kts | 135° |
| 2026-05-07 10:22 | 37.55320 | 126.80321 | 58 ft | 20 kts | 135° |
| 2026-05-07 10:22 | 37.55215 | 126.80453 | 55 ft | 20 kts | 135° |
| 2026-05-07 10:23 | 37.55120 | 126.80572 | 54 ft | 18 kts | 135° |
| 2026-05-07 10:23 | 37.55033 | 126.80681 | 54 ft | 16 kts | 135° |
| 2026-05-07 10:23 | 37.54957 | 126.80776 | 54 ft | 14 kts | 135° |
| 2026-05-07 10:23 | 37.54893 | 126.80825 | 54 ft | 9 kts | 189° |
| 2026-05-07 10:24 | 37.54844 | 126.80771 | 54 ft | 9 kts | 226° |
| 2026-05-07 10:24 | 37.54803 | 126.80715 | 54 ft | 8 kts | 237° |
| 2026-05-07 10:24 | 37.54808 | 126.80669 | 54 ft | 3 kts | 316° |
| 2026-05-07 10:24 | 37.54812 | 126.80664 | 54 ft | 0 kts | 316° |
| 2026-05-07 10:25 | 37.54813 | 126.80663 | 54 ft | 2 kts | 316° |
| 2026-05-07 10:25 | 37.54950 | 126.80491 | 54 ft | 62 kts | 315° |
| 2026-05-07 10:26 | 37.55408 | 126.79916 | 62 ft | 122 kts | 315° |
| 2026-05-07 10:26 | 37.56134 | 126.79003 | 65 ft | 171 kts | 315° |
| 2026-05-07 10:26 | 37.56984 | 126.77908 | 632 ft | 172 kts | 312° |
| 2026-05-07 10:26 | 37.57795 | 126.76847 | 1378 ft | 169 kts | 311° |
| 2026-05-07 10:27 | 37.58592 | 126.75777 | 1978 ft | 168 kts | 311° |
| 2026-05-07 10:27 | 37.59446 | 126.74656 | 2248 ft | 187 kts | 312° |
| 2026-05-07 10:27 | 37.60367 | 126.73444 | 2659 ft | 199 kts | 312° |
| 2026-05-07 10:27 | 37.61347 | 126.72115 | 3034 ft | 213 kts | 307° |
| 2026-05-07 10:28 | 37.62069 | 126.70477 | 3426 ft | 224 kts | 285° |
| 2026-05-07 10:28 | 37.62114 | 126.68475 | 3835 ft | 238 kts | 259° |
| 2026-05-07 10:28 | 37.61468 | 126.66491 | 4239 ft | 254 kts | 238° |
| 2026-05-07 10:28 | 37.60338 | 126.64761 | 4866 ft | 258 kts | 231° |
| 2026-05-07 10:29 | 37.59111 | 126.63125 | 5582 ft | 257 kts | 229° |
| 2026-05-07 10:29 | 37.57856 | 126.61497 | 6057 ft | 266 kts | 229° |
| 2026-05-07 10:29 | 37.56415 | 126.59989 | 6686 ft | 272 kts | 214° |
| 2026-05-07 10:30 | 37.52784 | 126.58736 | 8203 ft | 277 kts | 192° |
| 2026-05-07 10:30 | 37.50897 | 126.58495 | 8942 ft | 277 kts | 192° |
| 2026-05-07 10:30 | 37.48938 | 126.58273 | 9567 ft | 282 kts | 191° |
| 2026-05-07 10:30 | 37.47006 | 126.58065 | 10390 ft | 279 kts | 192° |
| 2026-05-07 10:31 | 37.45054 | 126.57828 | 10833 ft | 290 kts | 193° |
| 2026-05-07 10:31 | 37.42981 | 126.57557 | 11193 ft | 305 kts | 193° |
| 2026-05-07 10:31 | 37.40815 | 126.57317 | 11585 ft | 321 kts | 188° |
| 2026-05-07 10:31 | 37.38518 | 126.57530 | 11891 ft | 344 kts | 178° |
| 2026-05-07 10:32 | 37.36097 | 126.58104 | 12216 ft | 361 kts | 174° |
| 2026-05-07 10:32 | 37.33633 | 126.58800 | 12798 ft | 368 kts | 174° |
| 2026-05-07 10:32 | 37.31136 | 126.59570 | 13433 ft | 374 kts | 173° |
| 2026-05-07 10:32 | 37.28627 | 126.60443 | 14158 ft | 377 kts | 172° |
| 2026-05-07 10:33 | 37.26084 | 126.61369 | 14939 ft | 378 kts | 171° |
| 2026-05-07 10:33 | 37.23560 | 126.62273 | 15670 ft | 380 kts | 172° |
| 2026-05-07 10:33 | 37.21018 | 126.63158 | 16393 ft | 381 kts | 173° |
| 2026-05-07 10:33 | 37.18472 | 126.64018 | 17105 ft | 382 kts | 173° |
| 2026-05-07 10:34 | 37.15913 | 126.64867 | 17734 ft | 383 kts | 173° |
| 2026-05-07 10:34 | 37.13318 | 126.65720 | 18324 ft | 387 kts | 174° |
| 2026-05-07 10:34 | 37.10697 | 126.66576 | 18930 ft | 389 kts | 174° |
| 2026-05-07 10:34 | 37.08089 | 126.67427 | 19492 ft | 393 kts | 174° |
| 2026-05-07 10:35 | 37.05439 | 126.68291 | 19991 ft | 397 kts | 174° |
| 2026-05-07 10:35 | 37.02752 | 126.69167 | 20493 ft | 401 kts | 175° |
| 2026-05-07 10:35 | 37.00041 | 126.70052 | 20900 ft | 407 kts | 175° |
| 2026-05-07 10:35 | 36.97287 | 126.70951 | 21155 ft | 406 kts | 175° |
| 2026-05-07 10:36 | 36.94541 | 126.71853 | 21403 ft | 411 kts | 175° |
| 2026-05-07 10:36 | 36.91765 | 126.72765 | 21617 ft | 409 kts | 175° |
| 2026-05-07 10:36 | 36.89051 | 126.73779 | 21830 ft | 416 kts | 171° |
| 2026-05-07 10:36 | 36.86297 | 126.75034 | 21912 ft | 424 kts | 168° |
| 2026-05-07 10:37 | 36.83551 | 126.76424 | 21903 ft | 422 kts | 167° |
| 2026-05-07 10:37 | 36.80857 | 126.77850 | 21922 ft | 423 kts | 166° |
| 2026-05-07 10:37 | 36.78122 | 126.79317 | 21927 ft | 425 kts | 166° |
| 2026-05-07 10:37 | 36.75442 | 126.80763 | 21922 ft | 422 kts | 167° |
| 2026-05-07 10:38 | 36.72696 | 126.81976 | 21920 ft | 412 kts | 174° |
| 2026-05-07 10:38 | 36.70821 | 126.82483 | 21925 ft | 407 kts | 180° |
| 2026-05-07 10:38 | 36.67121 | 126.82951 | 21916 ft | 398 kts | 186° |
| 2026-05-07 10:38 | 36.64320 | 126.83079 | 21924 ft | 399 kts | 188° |
| 2026-05-07 10:39 | 36.61543 | 126.83134 | 21937 ft | 397 kts | 188° |
| 2026-05-07 10:39 | 36.58802 | 126.83175 | 21922 ft | 397 kts | 188° |
| 2026-05-07 10:39 | 36.56051 | 126.83224 | 21919 ft | 395 kts | 188° |
| 2026-05-07 10:39 | 36.53276 | 126.83285 | 21925 ft | 399 kts | 188° |
| 2026-05-07 10:40 | 36.50486 | 126.83356 | 21928 ft | 399 kts | 188° |
| 2026-05-07 10:40 | 36.47719 | 126.83443 | 21919 ft | 395 kts | 188° |
| 2026-05-07 10:40 | 36.44981 | 126.83533 | 21923 ft | 400 kts | 187° |
| 2026-05-07 10:40 | 36.42195 | 126.83626 | 21920 ft | 399 kts | 187° |
| 2026-05-07 10:41 | 36.39416 | 126.83721 | 21926 ft | 399 kts | 188° |
| 2026-05-07 10:41 | 36.36669 | 126.83677 | 21926 ft | 395 kts | 192° |
| 2026-05-07 10:41 | 36.33924 | 126.83450 | 21925 ft | 390 kts | 193° |
| 2026-05-07 10:41 | 36.31214 | 126.83139 | 21930 ft | 391 kts | 194° |
| 2026-05-07 10:42 | 36.28513 | 126.82795 | 21925 ft | 393 kts | 194° |
| 2026-05-07 10:42 | 36.25779 | 126.82450 | 21921 ft | 392 kts | 194° |
| 2026-05-07 10:42 | 36.23076 | 126.82121 | 21930 ft | 392 kts | 194° |
| 2026-05-07 10:42 | 36.20369 | 126.81802 | 21924 ft | 392 kts | 194° |
| 2026-05-07 10:43 | 36.17641 | 126.81493 | 21924 ft | 390 kts | 193° |
| 2026-05-07 10:43 | 36.14949 | 126.81192 | 21922 ft | 392 kts | 194° |
| 2026-05-07 10:43 | 36.12221 | 126.80889 | 21924 ft | 393 kts | 193° |
| 2026-05-07 10:43 | 36.09485 | 126.80589 | 21928 ft | 392 kts | 194° |
| 2026-05-07 10:44 | 36.06779 | 126.80294 | 21925 ft | 393 kts | 193° |
| 2026-05-07 10:44 | 36.04020 | 126.79993 | 21927 ft | 394 kts | 193° |
| 2026-05-07 10:44 | 36.01306 | 126.79697 | 21933 ft | 394 kts | 193° |
| 2026-05-07 10:44 | 35.98542 | 126.79398 | 21931 ft | 392 kts | 193° |
| 2026-05-07 10:45 | 35.95829 | 126.79103 | 21932 ft | 393 kts | 193° |
| 2026-05-07 10:45 | 35.93058 | 126.78803 | 21933 ft | 394 kts | 193° |
| 2026-05-07 10:45 | 35.90337 | 126.78509 | 21932 ft | 394 kts | 193° |
| 2026-05-07 10:45 | 35.87592 | 126.78213 | 21933 ft | 392 kts | 193° |
| 2026-05-07 10:46 | 35.84875 | 126.77919 | 21932 ft | 393 kts | 193° |
| 2026-05-07 10:46 | 35.82144 | 126.77623 | 21928 ft | 393 kts | 193° |
| 2026-05-07 10:46 | 35.79387 | 126.77322 | 21933 ft | 395 kts | 193° |
| 2026-05-07 10:46 | 35.76636 | 126.77026 | 21930 ft | 395 kts | 193° |
| 2026-05-07 10:47 | 35.73879 | 126.76726 | 21931 ft | 397 kts | 193° |
| 2026-05-07 10:47 | 35.71110 | 126.76428 | 21926 ft | 395 kts | 193° |
| 2026-05-07 10:47 | 35.68385 | 126.76135 | 21930 ft | 396 kts | 193° |
| 2026-05-07 10:47 | 35.65614 | 126.75835 | 21928 ft | 397 kts | 193° |
| 2026-05-07 10:48 | 35.62842 | 126.75536 | 21928 ft | 396 kts | 193° |
| 2026-05-07 10:48 | 35.60100 | 126.75244 | 21930 ft | 394 kts | 193° |
| 2026-05-07 10:48 | 35.57377 | 126.74950 | 21929 ft | 399 kts | 193° |
| 2026-05-07 10:48 | 35.54571 | 126.74646 | 21930 ft | 397 kts | 193° |
| 2026-05-07 10:49 | 35.51841 | 126.74354 | 21934 ft | 397 kts | 193° |
| 2026-05-07 10:49 | 35.49076 | 126.74056 | 21930 ft | 397 kts | 193° |
| 2026-05-07 10:49 | 35.46301 | 126.73758 | 21924 ft | 398 kts | 193° |
| 2026-05-07 10:49 | 35.43569 | 126.73466 | 21940 ft | 398 kts | 193° |
| 2026-05-07 10:50 | 35.40783 | 126.73168 | 21937 ft | 398 kts | 193° |
| 2026-05-07 10:50 | 35.38016 | 126.72874 | 21932 ft | 397 kts | 193° |
| 2026-05-07 10:50 | 35.35226 | 126.72575 | 21934 ft | 400 kts | 193° |
| 2026-05-07 10:50 | 35.32484 | 126.72281 | 21938 ft | 399 kts | 193° |
| 2026-05-07 10:51 | 35.29684 | 126.71983 | 21937 ft | 400 kts | 193° |
| 2026-05-07 10:51 | 35.26915 | 126.71690 | 21936 ft | 400 kts | 193° |
| 2026-05-07 10:51 | 35.24147 | 126.71396 | 21951 ft | 399 kts | 193° |
| 2026-05-07 10:51 | 35.21369 | 126.71103 | 21947 ft | 399 kts | 193° |
| 2026-05-07 10:52 | 35.18603 | 126.70812 | 21939 ft | 398 kts | 193° |
| 2026-05-07 10:52 | 35.15825 | 126.70515 | 21938 ft | 400 kts | 193° |
| 2026-05-07 10:52 | 35.13049 | 126.70218 | 21946 ft | 400 kts | 193° |
| 2026-05-07 10:52 | 35.10265 | 126.69920 | 21944 ft | 399 kts | 193° |
| 2026-05-07 10:53 | 35.07488 | 126.69626 | 21947 ft | 399 kts | 193° |
| 2026-05-07 10:53 | 35.04706 | 126.69331 | 21945 ft | 400 kts | 193° |
| 2026-05-07 10:53 | 35.01931 | 126.69035 | 21948 ft | 400 kts | 193° |
| 2026-05-07 10:53 | 34.99148 | 126.68742 | 21944 ft | 400 kts | 193° |
| 2026-05-07 10:54 | 34.96384 | 126.68449 | 21943 ft | 401 kts | 192° |
| 2026-05-07 10:54 | 34.93592 | 126.68155 | 21938 ft | 400 kts | 192° |
| 2026-05-07 10:54 | 34.90834 | 126.67864 | 21938 ft | 401 kts | 193° |
| 2026-05-07 10:54 | 34.88019 | 126.67565 | 21938 ft | 402 kts | 192° |
| 2026-05-07 10:55 | 34.85226 | 126.67268 | 21934 ft | 401 kts | 192° |
| 2026-05-07 10:55 | 34.82434 | 126.66975 | 21938 ft | 402 kts | 192° |
| 2026-05-07 10:55 | 34.79651 | 126.66677 | 21938 ft | 404 kts | 192° |
| 2026-05-07 10:55 | 34.76841 | 126.66379 | 21938 ft | 404 kts | 192° |
| 2026-05-07 10:56 | 34.74039 | 126.66086 | 21934 ft | 403 kts | 192° |
| 2026-05-07 10:56 | 34.71230 | 126.65791 | 21938 ft | 405 kts | 192° |
| 2026-05-07 10:56 | 34.68446 | 126.65499 | 21934 ft | 404 kts | 192° |
| 2026-05-07 10:56 | 34.65657 | 126.65211 | 21931 ft | 393 kts | 192° |
| 2026-05-07 10:57 | 34.62969 | 126.64943 | 21849 ft | 378 kts | 192° |
| 2026-05-07 10:57 | 34.60378 | 126.64682 | 21587 ft | 368 kts | 192° |
| 2026-05-07 10:57 | 34.57861 | 126.64421 | 21190 ft | 364 kts | 193° |
| 2026-05-07 10:57 | 34.55342 | 126.64153 | 20704 ft | 362 kts | 193° |
| 2026-05-07 10:58 | 34.52818 | 126.63882 | 20199 ft | 360 kts | 193° |
| 2026-05-07 10:58 | 34.50332 | 126.63616 | 19698 ft | 358 kts | 192° |
| 2026-05-07 10:58 | 34.47829 | 126.63351 | 19184 ft | 357 kts | 192° |
| 2026-05-07 10:58 | 34.45354 | 126.63091 | 18672 ft | 355 kts | 192° |
| 2026-05-07 10:59 | 34.42920 | 126.62834 | 18168 ft | 353 kts | 192° |
| 2026-05-07 10:59 | 34.40470 | 126.62578 | 17656 ft | 351 kts | 192° |
| 2026-05-07 10:59 | 34.38047 | 126.62325 | 17148 ft | 350 kts | 192° |
| 2026-05-07 10:59 | 34.35616 | 126.62072 | 16643 ft | 348 kts | 192° |
| 2026-05-07 11:00 | 34.33196 | 126.61820 | 16138 ft | 347 kts | 191° |
| 2026-05-07 11:00 | 34.30799 | 126.61569 | 15640 ft | 344 kts | 191° |
| 2026-05-07 11:00 | 34.28417 | 126.61331 | 15112 ft | 343 kts | 190° |
| 2026-05-07 11:00 | 34.26016 | 126.61237 | 14582 ft | 345 kts | 185° |
| 2026-05-07 11:01 | 34.23636 | 126.61455 | 14088 ft | 346 kts | 178° |
| 2026-05-07 11:01 | 34.21230 | 126.61930 | 13589 ft | 346 kts | 175° |
| 2026-05-07 11:01 | 34.18897 | 126.62515 | 13114 ft | 344 kts | 173° |
| 2026-05-07 11:01 | 34.16564 | 126.63141 | 12624 ft | 342 kts | 173° |
| 2026-05-07 11:02 | 34.14221 | 126.63769 | 12125 ft | 340 kts | 173° |
| 2026-05-07 11:02 | 34.11916 | 126.64374 | 11634 ft | 338 kts | 173° |
| 2026-05-07 11:02 | 34.09613 | 126.64964 | 11153 ft | 335 kts | 173° |
| 2026-05-07 11:02 | 34.07322 | 126.65540 | 10690 ft | 333 kts | 173° |
| 2026-05-07 11:03 | 34.05106 | 126.66095 | 10436 ft | 323 kts | 173° |
| 2026-05-07 11:03 | 34.02940 | 126.66639 | 10321 ft | 310 kts | 173° |
| 2026-05-07 11:03 | 34.00880 | 126.67156 | 10217 ft | 297 kts | 174° |
| 2026-05-07 11:03 | 33.98874 | 126.67658 | 10106 ft | 285 kts | 173° |
| 2026-05-07 11:04 | 33.96963 | 126.68133 | 9879 ft | 279 kts | 174° |
| 2026-05-07 11:04 | 33.95051 | 126.68604 | 9482 ft | 279 kts | 174° |
| 2026-05-07 11:04 | 33.93144 | 126.69074 | 9122 ft | 278 kts | 173° |
| 2026-05-07 11:04 | 33.91238 | 126.69544 | 8775 ft | 276 kts | 173° |
| 2026-05-07 11:05 | 33.89366 | 126.70009 | 8433 ft | 274 kts | 173° |
| 2026-05-07 11:05 | 33.87511 | 126.70472 | 8086 ft | 273 kts | 173° |
| 2026-05-07 11:05 | 33.85648 | 126.70937 | 7742 ft | 271 kts | 173° |
| 2026-05-07 11:05 | 33.83812 | 126.71394 | 7402 ft | 270 kts | 173° |
| 2026-05-07 11:06 | 33.81966 | 126.71852 | 7059 ft | 268 kts | 172° |
| 2026-05-07 11:06 | 33.80151 | 126.72302 | 6721 ft | 267 kts | 172° |
| 2026-05-07 11:06 | 33.78327 | 126.72755 | 6389 ft | 265 kts | 172° |
| 2026-05-07 11:06 | 33.76511 | 126.73206 | 6060 ft | 264 kts | 172° |
| 2026-05-07 11:07 | 33.74726 | 126.73650 | 5736 ft | 262 kts | 172° |
| 2026-05-07 11:07 | 33.72931 | 126.74095 | 5412 ft | 261 kts | 172° |
| 2026-05-07 11:07 | 33.71146 | 126.74536 | 5091 ft | 259 kts | 172° |
| 2026-05-07 11:07 | 33.69414 | 126.74966 | 4922 ft | 251 kts | 172° |
| 2026-05-07 11:08 | 33.67740 | 126.75382 | 4853 ft | 241 kts | 173° |
| 2026-05-07 11:08 | 33.66091 | 126.75600 | 4785 ft | 238 kts | 187° |
| 2026-05-07 11:08 | 33.64574 | 126.75053 | 4649 ft | 221 kts | 215° |
| 2026-05-07 11:08 | 33.63385 | 126.73925 | 4356 ft | 216 kts | 229° |
| 2026-05-07 11:09 | 33.62465 | 126.72528 | 4103 ft | 211 kts | 242° |
| 2026-05-07 11:09 | 33.61858 | 126.70963 | 3968 ft | 199 kts | 255° |
| 2026-05-07 11:09 | 33.61466 | 126.69465 | 3948 ft | 183 kts | 251° |
| 2026-05-07 11:09 | 33.60912 | 126.68101 | 3685 ft | 183 kts | 243° |
| 2026-05-07 11:10 | 33.60249 | 126.66795 | 3425 ft | 181 kts | 242° |
| 2026-05-07 11:10 | 33.59595 | 126.65513 | 3170 ft | 178 kts | 242° |
| 2026-05-07 11:10 | 33.58949 | 126.64247 | 2923 ft | 176 kts | 242° |
| 2026-05-07 11:10 | 33.58317 | 126.63016 | 2682 ft | 174 kts | 242° |
| 2026-05-07 11:11 | 33.57680 | 126.61775 | 2446 ft | 172 kts | 242° |
| 2026-05-07 11:11 | 33.57059 | 126.60558 | 2205 ft | 170 kts | 243° |
| 2026-05-07 11:11 | 33.56455 | 126.59386 | 2001 ft | 159 kts | 242° |
| 2026-05-07 11:11 | 33.55889 | 126.58296 | 1819 ft | 154 kts | 242° |
| 2026-05-07 11:12 | 33.55324 | 126.57201 | 1549 ft | 154 kts | 242° |
| 2026-05-07 11:12 | 33.54776 | 126.56114 | 1368 ft | 148 kts | 242° |
| 2026-05-07 11:12 | 33.54218 | 126.55045 | 1165 ft | 151 kts | 242° |
| 2026-05-07 11:12 | 33.53674 | 126.53980 | 947 ft | 153 kts | 242° |
| 2026-05-07 11:13 | 33.53114 | 126.52900 | 762 ft | 152 kts | 241° |
| 2026-05-07 11:13 | 33.52558 | 126.51849 | 551 ft | 150 kts | 242° |
| 2026-05-07 11:13 | 33.52003 | 126.50778 | 371 ft | 148 kts | 240° |
| 2026-05-07 11:13 | 33.51460 | 126.49719 | 149 ft | 151 kts | 240° |
| 2026-05-07 11:14 | 33.50968 | 126.48753 | 127 ft | 107 kts | 239° |
| 2026-05-07 11:14 | 33.50694 | 126.48219 | 127 ft | 46 kts | 239° |
| 2026-05-07 11:14 | 33.50574 | 126.48030 | 127 ft | 17 kts | 220° |
| 2026-05-07 11:14 | 33.50476 | 126.47952 | 127 ft | 14 kts | 208° |
| 2026-05-07 11:15 | 33.50401 | 126.47917 | 127 ft | 10 kts | 177° |
| 2026-05-07 11:15 | 33.50378 | 126.47982 | 127 ft | 9 kts | 64° |
| 2026-05-07 11:15 | 33.50417 | 126.48058 | 127 ft | 13 kts | 58° |
| 2026-05-07 11:15 | 33.50478 | 126.48176 | 127 ft | 19 kts | 59° |
| 2026-05-07 11:16 | 33.50552 | 126.48321 | 127 ft | 20 kts | 59° |
| 2026-05-07 11:16 | 33.50624 | 126.48462 | 127 ft | 19 kts | 59° |
| 2026-05-07 11:16 | 33.50695 | 126.48600 | 127 ft | 19 kts | 59° |
| 2026-05-07 11:16 | 33.50763 | 126.48733 | 127 ft | 18 kts | 58° |
| 2026-05-07 11:17 | 33.50830 | 126.48862 | 127 ft | 17 kts | 58° |
| 2026-05-07 11:17 | 33.50893 | 126.48987 | 127 ft | 17 kts | 59° |
| 2026-05-07 11:17 | 33.50956 | 126.49109 | 127 ft | 16 kts | 58° |
| 2026-05-07 11:17 | 33.51016 | 126.49226 | 127 ft | 15 kts | 59° |
| 2026-05-07 11:18 | 33.51046 | 126.49322 | 127 ft | 10 kts | 107° |
| 2026-05-07 11:18 | 33.50992 | 126.49374 | 127 ft | 9 kts | 150° |
| 2026-05-07 11:18 | 33.50944 | 126.49427 | 127 ft | 8 kts | 112° |
| 2026-05-07 11:18 | 33.50919 | 126.49480 | 127 ft | 7 kts | 159° |
| 2026-05-07 11:19 | 33.50868 | 126.49484 | 127 ft | 6 kts | 179° |
| 2026-05-07 11:19 | 33.50822 | 126.49486 | 127 ft | 5 kts | 178° |
| 2026-05-07 11:19 | 33.50811 | 126.49486 | 127 ft | 0 kts | 178° |